createdAt,value
2023-05-14T00:01:25.298Z,9.43
2023-05-14T00:03:52.734Z,9.90
2023-05-14T00:06:20.255Z,9.03
2023-05-14T00:08:47.701Z,8.53
2023-05-14T00:11:15.860Z,8.83
2023-05-14T00:13:43.290Z,8.53
2023-05-14T00:16:11.519Z,9.90
2023-05-14T00:18:39.058Z,8.67
2023-05-14T00:21:06.486Z,9.23
2023-05-14T00:23:33.999Z,9.57
2023-05-14T00:26:01.286Z,9.90
2023-05-14T00:28:29.305Z,8.80
2023-05-14T00:30:56.663Z,8.93
2023-05-14T00:33:24.707Z,8.30
2023-05-14T00:35:52.126Z,9.83
2023-05-14T00:38:19.709Z,10.17
2023-05-14T00:40:51.240Z,10.07
2023-05-14T00:43:19.138Z,9.10
2023-05-14T00:45:49.773Z,9.60
2023-05-14T00:48:17.287Z,8.43
2023-05-14T00:50:44.699Z,9.60
2023-05-14T00:53:13.032Z,10.00
2023-05-14T00:55:42.519Z,10.50
2023-05-14T00:58:11.761Z,9.93
2023-05-14T01:00:40.249Z,9.80
2023-05-14T01:03:09.117Z,10.13
2023-05-14T01:05:43.623Z,10.17
2023-05-14T01:08:25.151Z,9.70
2023-05-14T01:10:57.423Z,9.40
2023-05-14T01:13:31.974Z,9.90
2023-05-14T01:16:00.569Z,10.23
2023-05-14T01:18:29.821Z,9.83
2023-05-14T01:20:57.171Z,10.00
2023-05-14T01:23:25.456Z,10.47
2023-05-14T01:25:52.847Z,9.70
2023-05-14T01:28:26.252Z,10.37
2023-05-14T01:30:57.057Z,9.20
2023-05-14T01:33:29.246Z,9.47
2023-05-14T01:35:57.820Z,9.77
2023-05-14T01:38:30.268Z,10.67
2023-05-14T01:40:59.380Z,9.57
2023-05-14T01:43:27.156Z,11.10
2023-05-14T01:45:55.109Z,10.43
2023-05-14T01:48:22.528Z,10.27
2023-05-14T01:50:50.017Z,9.43
2023-05-14T01:53:17.391Z,9.07
2023-05-14T01:55:45.666Z,12.03
2023-05-14T01:58:13.059Z,10.83
2023-05-14T02:00:40.515Z,11.77
2023-05-14T02:03:07.958Z,11.13
2023-05-14T02:05:35.271Z,11.20
2023-05-14T02:08:02.704Z,11.00
2023-05-14T02:10:30.093Z,11.90
2023-05-14T02:12:58.331Z,10.33
2023-05-14T02:15:25.822Z,9.93
2023-05-14T02:17:53.312Z,9.93
2023-05-14T02:20:20.766Z,10.00
2023-05-14T02:22:48.254Z,10.67
2023-05-14T02:25:15.947Z,10.50
2023-05-14T02:27:43.414Z,10.77
2023-05-14T02:30:12.839Z,10.37
2023-05-14T02:32:40.310Z,9.60
2023-05-14T02:35:08.813Z,11.20
2023-05-14T02:37:36.181Z,9.70
2023-05-14T02:40:03.865Z,11.30
2023-05-14T02:42:31.243Z,11.03
2023-05-14T02:44:59.049Z,12.33
2023-05-14T02:47:27.193Z,12.40
2023-05-14T02:49:54.553Z,13.47
2023-05-14T02:52:21.908Z,10.63
2023-05-14T02:54:49.265Z,10.50
2023-05-14T02:57:16.684Z,11.77
2023-05-14T02:59:44.068Z,10.90
2023-05-14T03:02:11.722Z,12.00
2023-05-14T03:04:40.224Z,10.00
2023-05-14T03:07:07.671Z,10.87
2023-05-14T03:09:37.391Z,10.03
2023-05-14T03:12:07.009Z,12.03
2023-05-14T03:14:34.339Z,10.40
2023-05-14T03:17:02.068Z,11.27
2023-05-14T03:19:29.519Z,9.97
2023-05-14T03:21:57.657Z,9.97
2023-05-14T03:24:25.136Z,10.33
2023-05-14T03:26:52.818Z,10.87
2023-05-14T03:29:20.236Z,9.83
2023-05-14T03:31:47.705Z,11.30
2023-05-14T03:34:15.045Z,11.33
2023-05-14T03:36:42.388Z,9.97
2023-05-14T03:39:10.312Z,10.23
2023-05-14T03:41:38.601Z,11.60
2023-05-14T03:44:06.104Z,10.60
2023-05-14T03:46:33.453Z,11.00
2023-05-14T03:49:00.990Z,10.77
2023-05-14T03:51:28.463Z,12.40
2023-05-14T03:53:57.532Z,10.57
2023-05-14T03:56:26.033Z,11.90
2023-05-14T03:58:53.496Z,12.60
2023-05-14T04:01:20.786Z,11.90
2023-05-14T04:03:48.338Z,12.73
2023-05-14T04:06:15.807Z,11.33
2023-05-14T04:08:43.133Z,11.50
2023-05-14T04:11:10.520Z,11.43
2023-05-14T04:13:38.503Z,10.10
2023-05-14T04:16:06.287Z,11.10
2023-05-14T04:18:34.619Z,10.37
2023-05-14T04:21:02.079Z,11.10
2023-05-14T04:23:31.114Z,10.97
2023-05-14T04:25:58.486Z,11.33
2023-05-14T04:28:25.928Z,11.43
2023-05-14T04:30:53.980Z,12.40
2023-05-14T04:33:21.271Z,12.20
2023-05-14T04:35:48.534Z,10.40
2023-05-14T04:38:15.839Z,12.53
2023-05-14T04:40:43.089Z,11.03
2023-05-14T04:43:10.631Z,10.90
2023-05-14T04:45:37.964Z,12.20
2023-05-14T04:48:07.268Z,13.00
2023-05-14T04:50:34.891Z,13.90
2023-05-14T04:53:02.658Z,12.50
2023-05-14T04:55:30.354Z,13.60
2023-05-14T04:57:57.564Z,12.60
2023-05-14T05:00:25.265Z,12.53
2023-05-14T05:02:52.980Z,12.13
2023-05-14T05:05:21.552Z,13.73
2023-05-14T05:07:48.938Z,13.27
2023-05-14T05:10:16.207Z,12.50
2023-05-14T05:12:43.512Z,11.73
2023-05-14T05:15:11.129Z,12.10
2023-05-14T05:17:38.510Z,12.63
2023-05-14T05:20:09.807Z,12.47
2023-05-14T05:22:38.204Z,11.70
2023-05-14T05:25:07.456Z,12.53
2023-05-14T05:27:38.044Z,11.57
2023-05-14T05:30:06.664Z,12.30
2023-05-14T05:32:34.064Z,11.60
2023-05-14T05:35:01.455Z,11.27
2023-05-14T05:37:28.777Z,12.30
2023-05-14T05:40:00.242Z,11.03
2023-05-14T05:42:31.002Z,11.57
2023-05-14T05:44:58.496Z,11.37
2023-05-14T05:47:36.469Z,10.90
2023-05-14T05:50:04.294Z,10.50
2023-05-14T05:52:31.725Z,9.60
2023-05-14T05:55:00.332Z,10.43
2023-05-14T05:57:27.641Z,10.63
2023-05-14T05:59:54.922Z,10.53
2023-05-14T06:02:22.226Z,11.13
2023-05-14T06:04:49.647Z,9.57
2023-05-14T06:07:16.969Z,10.20
2023-05-14T06:09:44.219Z,10.87
2023-05-14T06:12:12.200Z,10.10
2023-05-14T06:14:39.536Z,11.03
2023-05-14T06:17:07.084Z,11.10
2023-05-14T06:19:34.499Z,10.10
2023-05-14T06:22:02.182Z,10.17
2023-05-14T06:24:29.466Z,10.70
2023-05-14T06:26:56.891Z,10.80
2023-05-14T06:29:25.190Z,10.73
2023-05-14T06:31:53.188Z,11.13
2023-05-14T06:34:21.170Z,10.33
2023-05-14T06:36:48.509Z,8.90
2023-05-14T06:39:15.872Z,10.07
2023-05-14T06:44:44.553Z,10.93
2023-05-14T06:47:14.729Z,10.17
2023-05-14T06:49:42.259Z,9.57
2023-05-14T06:52:10.089Z,8.20
2023-05-14T06:54:37.710Z,7.63
2023-05-14T06:57:05.863Z,7.47
2023-05-14T06:59:33.292Z,8.50
2023-05-14T07:02:01.643Z,7.70
2023-05-14T07:04:30.857Z,7.27
2023-05-14T07:06:58.215Z,7.90
2023-05-14T07:09:25.835Z,7.20
2023-05-14T07:11:53.440Z,7.20
2023-05-14T07:14:21.000Z,6.87
2023-05-14T07:16:48.554Z,7.07
2023-05-14T07:19:16.677Z,7.17
2023-05-14T07:21:44.164Z,6.50
2023-05-14T07:24:11.500Z,7.23
2023-05-14T07:26:38.946Z,7.30
2023-05-14T07:29:06.492Z,8.23
2023-05-14T07:31:34.348Z,7.23
2023-05-14T07:34:01.686Z,7.60
2023-05-14T07:36:30.160Z,7.13
2023-05-14T07:38:57.544Z,7.80
2023-05-14T07:41:25.090Z,6.90
2023-05-14T07:43:52.488Z,6.60
2023-05-14T07:46:19.836Z,5.87
2023-05-14T07:48:47.153Z,5.57
2023-05-14T07:51:14.445Z,5.80
2023-05-14T07:53:42.414Z,6.27
2023-05-14T07:56:09.826Z,6.57
2023-05-14T07:58:37.057Z,6.20
2023-05-14T08:01:06.449Z,5.53
2023-05-14T08:03:33.995Z,6.97
2023-05-14T08:06:01.349Z,6.47
2023-05-14T08:08:28.903Z,6.83
2023-05-14T08:10:57.404Z,6.87
2023-05-14T08:13:26.185Z,6.37
2023-05-14T08:15:53.496Z,6.30
2023-05-14T08:18:20.946Z,6.60
2023-05-14T08:20:51.220Z,5.93
2023-05-14T08:23:18.606Z,6.13
2023-05-14T08:25:45.906Z,6.90
2023-05-14T08:28:13.909Z,6.10
2023-05-14T08:30:41.301Z,5.87
2023-05-14T08:33:08.667Z,5.93
2023-05-14T08:35:35.996Z,6.53
2023-05-14T08:38:03.376Z,6.73
2023-05-14T08:40:30.784Z,5.33
2023-05-14T08:42:58.425Z,5.23
2023-05-14T08:45:33.629Z,6.63
2023-05-14T08:48:04.470Z,6.43
2023-05-14T08:50:32.149Z,6.13
2023-05-14T08:52:59.682Z,6.10
2023-05-14T08:55:28.052Z,5.70
2023-05-14T08:57:55.989Z,5.90
2023-05-14T09:00:24.180Z,6.40
2023-05-14T09:02:53.109Z,4.60
2023-05-14T09:05:21.146Z,5.93
2023-05-14T09:07:48.460Z,5.70
2023-05-14T09:10:16.965Z,5.17
2023-05-14T09:12:44.234Z,3.70
2023-05-14T09:15:11.770Z,4.73
2023-05-14T09:17:39.052Z,5.10
2023-05-14T09:20:09.044Z,5.60
2023-05-14T09:22:36.530Z,5.23
2023-05-14T09:25:05.868Z,5.93
2023-05-14T09:27:33.896Z,3.93
2023-05-14T09:30:09.437Z,4.80
2023-05-14T09:32:37.921Z,5.40
2023-05-14T09:35:17.990Z,4.40
2023-05-14T09:37:47.054Z,5.53
2023-05-14T09:40:15.501Z,5.50
2023-05-14T09:42:42.826Z,5.17
2023-05-14T09:45:11.329Z,5.17
2023-05-14T09:47:39.278Z,5.13
2023-05-14T09:50:07.880Z,5.70
2023-05-14T09:52:36.856Z,5.73
2023-05-14T09:55:04.910Z,5.10
2023-05-14T09:57:32.847Z,4.83
2023-05-14T10:00:00.178Z,5.17
2023-05-14T10:02:33.193Z,4.17
2023-05-14T10:05:04.307Z,4.53
2023-05-14T10:07:38.537Z,5.30
2023-05-14T10:10:10.906Z,5.60
2023-05-14T10:12:40.339Z,4.47
2023-05-14T10:15:15.249Z,4.43
2023-05-14T10:17:49.759Z,4.07
2023-05-14T10:20:17.278Z,3.80
2023-05-14T10:22:45.907Z,3.80
2023-05-14T10:25:13.616Z,3.40
2023-05-14T10:27:41.622Z,3.60
2023-05-14T10:30:12.461Z,3.37
2023-05-14T10:32:41.132Z,3.70
2023-05-14T10:35:19.767Z,4.47
2023-05-14T10:37:50.512Z,3.47
2023-05-14T10:40:18.458Z,3.80
2023-05-14T10:42:47.490Z,4.27
2023-05-14T10:45:16.140Z,3.70
2023-05-14T10:47:46.057Z,4.00
2023-05-14T10:50:15.395Z,4.60
2023-05-14T10:52:43.633Z,3.70
2023-05-14T10:55:14.610Z,4.40
2023-05-14T10:57:44.612Z,4.17
2023-05-14T11:00:14.227Z,4.10
2023-05-14T11:02:43.238Z,4.00
2023-05-14T11:05:13.248Z,4.23
2023-05-14T11:07:42.289Z,3.13
2023-05-14T11:10:12.483Z,3.93
2023-05-14T11:12:42.519Z,4.73
2023-05-14T11:15:11.893Z,3.97
2023-05-14T11:17:40.175Z,4.70
2023-05-14T11:20:08.237Z,4.77
2023-05-14T11:22:36.261Z,4.73
2023-05-14T11:25:04.084Z,3.33
2023-05-14T11:27:34.921Z,4.60
2023-05-14T11:30:03.338Z,3.20
2023-05-14T11:32:32.837Z,4.50
2023-05-14T11:35:00.237Z,3.00
2023-05-14T11:37:29.868Z,5.00
2023-05-14T11:39:59.924Z,3.33
2023-05-14T11:42:27.450Z,4.67
2023-05-14T11:44:55.952Z,5.40
2023-05-14T11:47:23.523Z,3.47
2023-05-14T11:49:50.897Z,4.33
2023-05-14T11:52:18.884Z,4.43
2023-05-14T11:54:46.426Z,3.90
2023-05-14T11:57:15.895Z,4.77
2023-05-14T11:59:43.587Z,5.30
2023-05-14T12:02:13.701Z,4.80
2023-05-14T12:04:42.288Z,4.47
2023-05-14T12:07:11.823Z,5.83
2023-05-14T12:09:40.849Z,4.97
2023-05-14T12:12:10.701Z,6.07
2023-05-14T12:14:38.815Z,4.40
2023-05-14T12:17:13.339Z,4.70
2023-05-14T12:19:41.784Z,5.03
2023-05-14T12:22:09.858Z,4.40
2023-05-14T12:24:38.437Z,4.93
2023-05-14T12:27:06.729Z,4.43
2023-05-14T12:29:37.514Z,4.60
2023-05-14T12:32:09.167Z,4.60
2023-05-14T12:34:37.756Z,5.07
2023-05-14T12:37:05.641Z,4.77
2023-05-14T12:39:34.106Z,4.97
2023-05-14T12:42:01.861Z,4.07
2023-05-14T12:44:29.334Z,4.17
2023-05-14T12:46:57.517Z,5.93
2023-05-14T12:49:25.351Z,4.97
2023-05-14T12:52:03.202Z,3.17
2023-05-14T12:54:42.997Z,4.23
2023-05-14T12:57:10.372Z,4.70
2023-05-14T12:59:37.687Z,3.23
2023-05-14T13:02:05.103Z,3.73
2023-05-14T13:04:33.135Z,3.80
2023-05-14T13:07:01.151Z,4.13
2023-05-14T13:09:28.420Z,3.40
2023-05-14T13:11:55.729Z,3.20
2023-05-14T13:14:23.064Z,4.70
2023-05-14T13:16:50.506Z,3.50
2023-05-14T13:19:17.866Z,4.07
2023-05-14T13:21:45.317Z,4.37
2023-05-14T13:24:13.351Z,5.20
2023-05-14T13:26:40.668Z,3.97
2023-05-14T13:29:07.925Z,3.60
2023-05-14T13:31:35.423Z,4.27
2023-05-14T13:34:02.753Z,4.67
2023-05-14T13:36:31.573Z,3.30
2023-05-14T13:38:58.895Z,4.10
2023-05-14T13:41:27.181Z,3.97
2023-05-14T13:43:54.488Z,4.27
2023-05-14T13:46:21.835Z,4.37
2023-05-14T13:48:49.158Z,4.40
2023-05-14T13:51:16.634Z,4.03
2023-05-14T13:53:44.008Z,4.13
2023-05-14T13:56:11.415Z,3.83
2023-05-14T13:58:39.492Z,5.23
2023-05-14T14:01:06.878Z,4.60
2023-05-14T14:03:34.210Z,5.27
2023-05-14T14:06:01.537Z,4.40
2023-05-14T14:08:28.902Z,5.43
2023-05-14T14:10:56.234Z,4.93
2023-05-14T14:13:23.586Z,4.70
2023-05-14T14:15:51.904Z,4.67
2023-05-14T14:18:19.381Z,5.33
2023-05-14T14:20:46.848Z,5.40
2023-05-14T14:23:14.517Z,4.87
2023-05-14T14:25:41.840Z,5.13
2023-05-14T14:28:09.137Z,4.53
2023-05-14T14:30:36.553Z,4.17
2023-05-14T14:33:04.739Z,5.20
2023-05-14T14:35:32.753Z,5.33
2023-05-14T14:38:00.132Z,4.40
2023-05-14T14:40:27.465Z,4.70
2023-05-14T14:42:54.771Z,4.70
2023-05-14T14:45:22.576Z,5.90
2023-05-14T14:47:50.238Z,5.30
2023-05-14T14:50:18.580Z,4.87
2023-05-14T14:52:47.348Z,5.63
2023-05-14T14:55:14.763Z,4.53
2023-05-14T14:57:42.105Z,4.60
2023-05-14T15:00:10.463Z,4.90
2023-05-14T15:02:41.163Z,4.80
2023-05-14T15:05:09.380Z,5.20
2023-05-14T15:07:37.438Z,5.00
2023-05-14T15:10:06.007Z,4.47
2023-05-14T15:12:33.322Z,5.30
2023-05-14T15:15:00.628Z,4.50
2023-05-14T15:17:29.236Z,5.23
2023-05-14T15:19:56.579Z,5.33
2023-05-14T15:22:26.452Z,5.60
2023-05-14T15:24:54.421Z,4.17
2023-05-14T15:27:21.828Z,4.70
2023-05-14T15:29:49.145Z,4.83
2023-05-14T15:32:20.488Z,5.47
2023-05-14T15:34:47.793Z,6.73
2023-05-14T15:37:15.105Z,5.63
2023-05-14T15:39:42.365Z,5.30
2023-05-14T15:42:10.380Z,5.43
2023-05-14T15:44:38.929Z,5.50
2023-05-14T15:47:06.834Z,4.73
2023-05-14T15:49:34.232Z,4.83
2023-05-14T15:52:02.226Z,5.07
2023-05-14T15:54:29.582Z,5.23
2023-05-14T15:57:00.764Z,5.23
2023-05-14T15:59:29.764Z,4.93
2023-05-14T16:01:57.103Z,5.00
2023-05-14T16:04:24.548Z,5.10
2023-05-14T16:06:51.854Z,5.43
2023-05-14T16:09:19.181Z,5.40
2023-05-14T16:11:46.461Z,5.73
2023-05-14T16:14:13.692Z,5.20
2023-05-14T16:16:41.660Z,4.77
2023-05-14T16:19:09.094Z,4.60
2023-05-14T16:21:36.539Z,5.50
2023-05-14T16:24:05.309Z,4.80
2023-05-14T16:26:32.970Z,5.30
2023-05-14T16:29:00.477Z,5.03
2023-05-14T16:31:27.889Z,4.47
2023-05-14T16:33:55.895Z,4.23
2023-05-14T16:36:24.380Z,4.90
2023-05-14T16:39:06.840Z,4.63
2023-05-14T16:41:35.380Z,4.27
2023-05-14T16:44:02.892Z,4.90
2023-05-14T16:46:30.650Z,4.50
2023-05-14T16:48:58.768Z,4.53
2023-05-14T16:51:26.067Z,5.17
2023-05-14T16:53:55.415Z,4.97
2023-05-14T16:56:23.190Z,5.10
2023-05-14T16:58:50.536Z,4.50
2023-05-14T17:01:17.976Z,4.77
2023-05-14T17:03:45.350Z,4.80
2023-05-14T17:06:13.420Z,4.63
2023-05-14T17:08:40.765Z,5.30
2023-05-14T17:11:08.081Z,5.10
2023-05-14T17:13:35.321Z,5.40
2023-05-14T17:16:03.070Z,4.90
2023-05-14T17:18:31.962Z,4.70
2023-05-14T17:20:59.280Z,4.47
2023-05-14T17:23:27.268Z,4.67
2023-05-14T17:25:55.898Z,4.30
2023-05-14T17:28:23.793Z,4.80
2023-05-14T17:30:51.118Z,4.87
2023-05-14T17:33:18.426Z,4.47
2023-05-14T17:35:45.864Z,3.90
2023-05-14T17:38:13.331Z,3.73
2023-05-14T17:40:41.481Z,4.00
2023-05-14T17:43:08.771Z,4.10
2023-05-14T17:45:46.365Z,4.43
2023-05-14T17:48:21.063Z,4.20
2023-05-14T17:50:48.348Z,3.90
2023-05-14T17:53:15.648Z,4.47
2023-05-14T17:55:43.889Z,4.27
2023-05-14T17:58:12.745Z,4.50
2023-05-14T18:00:40.350Z,4.90
2023-05-14T18:03:08.044Z,5.27
2023-05-14T18:05:35.809Z,4.97
2023-05-14T18:08:03.251Z,4.73
2023-05-14T18:10:30.578Z,4.70
2023-05-14T18:12:58.671Z,4.50
2023-05-14T18:15:26.671Z,4.90
2023-05-14T18:17:54.185Z,4.40
2023-05-14T18:20:21.715Z,4.63
2023-05-14T18:22:49.908Z,4.63
2023-05-14T18:25:17.641Z,4.23
2023-05-14T18:27:45.488Z,4.83
2023-05-14T18:30:15.242Z,5.50
2023-05-14T18:32:44.378Z,4.40
2023-05-14T18:35:12.852Z,4.00
2023-05-14T18:37:40.570Z,4.63
2023-05-14T18:40:09.031Z,3.50
2023-05-14T18:42:36.447Z,3.60
2023-05-14T18:45:04.336Z,4.00
2023-05-14T18:47:32.896Z,3.40
2023-05-14T18:50:01.203Z,3.80
2023-05-14T18:52:28.907Z,3.80
2023-05-14T18:54:59.246Z,3.90
2023-05-14T18:57:28.842Z,3.93
2023-05-14T18:59:56.463Z,5.70
2023-05-14T19:02:23.917Z,3.60
2023-05-14T19:04:53.254Z,4.03
2023-05-14T19:07:20.990Z,3.80
2023-05-14T19:09:48.724Z,4.10
2023-05-14T19:12:16.329Z,4.63
2023-05-14T19:14:43.746Z,4.67
2023-05-14T19:17:11.457Z,4.73
2023-05-14T19:19:40.980Z,3.80
2023-05-14T19:22:09.139Z,4.70
2023-05-14T19:24:37.253Z,4.70
2023-05-14T19:27:04.974Z,6.20
2023-05-14T19:29:33.129Z,4.57
2023-05-14T19:32:03.969Z,5.70
2023-05-14T19:34:31.524Z,4.70
2023-05-14T19:36:58.980Z,4.80
2023-05-14T19:39:27.028Z,5.10
2023-05-14T19:41:54.511Z,7.80
2023-05-14T19:44:21.910Z,7.90
2023-05-14T19:46:49.311Z,7.47
2023-05-14T19:49:16.655Z,7.30
2023-05-14T19:51:43.997Z,6.80
2023-05-14T19:54:11.435Z,6.67
2023-05-14T19:56:39.579Z,7.10
2023-05-14T19:59:06.980Z,5.70
2023-05-14T20:01:34.536Z,5.20
2023-05-14T20:04:01.980Z,6.03
2023-05-14T20:06:29.475Z,5.40
2023-05-14T20:08:56.841Z,5.07
2023-05-14T20:11:24.303Z,9.10
2023-05-14T20:13:52.294Z,5.47
2023-05-14T20:16:20.097Z,4.97
2023-05-14T20:18:47.523Z,4.60
2023-05-14T20:21:14.837Z,4.20
2023-05-14T20:23:42.094Z,4.20
2023-05-14T20:26:09.512Z,5.50
2023-05-14T20:28:36.952Z,5.20
2023-05-14T20:31:05.068Z,4.60
2023-05-14T20:33:32.487Z,4.20
2023-05-14T20:36:03.266Z,4.57
2023-05-14T20:38:32.025Z,4.57
2023-05-14T20:40:59.385Z,5.00
2023-05-14T20:43:27.096Z,4.10
2023-05-14T20:45:56.841Z,5.07
2023-05-14T20:48:25.028Z,4.87
2023-05-14T20:50:52.283Z,4.67
2023-05-14T20:53:19.706Z,4.23
2023-05-14T20:55:47.181Z,5.60
2023-05-14T20:58:14.625Z,4.90
2023-05-14T21:00:42.633Z,5.90
2023-05-14T21:03:10.137Z,6.40
2023-05-14T21:05:40.743Z,6.40
2023-05-14T21:08:08.725Z,5.50
2023-05-14T21:10:36.087Z,6.10
2023-05-14T21:13:03.454Z,5.57
2023-05-14T21:15:30.815Z,5.80
2023-05-14T21:17:58.265Z,5.40
2023-05-14T21:20:25.620Z,5.40
2023-05-14T21:22:53.594Z,5.73
2023-05-14T21:25:21.136Z,9.23
2023-05-14T21:27:48.649Z,5.93
2023-05-14T21:30:16.351Z,6.73
2023-05-14T21:32:43.728Z,6.63
2023-05-14T21:35:11.057Z,6.60
2023-05-14T21:37:39.199Z,6.00
2023-05-14T21:40:09.091Z,5.77
2023-05-14T21:42:36.524Z,5.90
2023-05-14T21:45:04.645Z,5.90
2023-05-14T21:47:33.815Z,6.10
2023-05-14T21:50:01.177Z,6.63
2023-05-14T21:52:28.522Z,7.20
2023-05-14T21:54:55.885Z,6.93
2023-05-14T21:57:24.547Z,6.63
2023-05-14T21:59:53.367Z,6.23
2023-05-14T22:02:20.804Z,6.77
2023-05-14T22:04:48.233Z,7.00
2023-05-14T22:07:15.778Z,6.53
2023-05-14T22:09:43.079Z,6.07
2023-05-14T22:12:10.647Z,6.23
2023-05-14T22:14:38.631Z,7.10
2023-05-14T22:17:06.416Z,6.03
2023-05-14T22:19:33.772Z,5.30
2023-05-14T22:22:01.086Z,6.20
2023-05-14T22:24:28.384Z,5.87
2023-05-14T22:26:55.682Z,6.60
2023-05-14T22:29:22.989Z,5.57
2023-05-14T22:31:51.296Z,5.77
2023-05-14T22:34:18.933Z,6.20
2023-05-14T22:36:46.188Z,5.47
2023-05-14T22:39:13.682Z,5.10
2023-05-14T22:41:41.002Z,6.77
2023-05-14T22:44:08.261Z,5.87
2023-05-14T22:46:35.802Z,6.53
2023-05-14T22:49:03.822Z,5.93
2023-05-14T22:51:31.034Z,6.10
2023-05-14T22:53:58.239Z,7.03
2023-05-14T22:56:25.574Z,6.07
2023-05-14T22:58:52.872Z,6.27
2023-05-14T23:01:20.187Z,6.37
2023-05-14T23:03:47.474Z,6.47
2023-05-14T23:06:15.487Z,5.83
2023-05-14T23:08:42.747Z,6.67
2023-05-14T23:11:10.527Z,6.90
2023-05-14T23:13:38.209Z,5.77
2023-05-14T23:16:06.052Z,6.43
2023-05-14T23:18:33.556Z,6.00
2023-05-14T23:21:00.980Z,6.73
2023-05-14T23:23:28.884Z,5.83
2023-05-14T23:25:56.189Z,6.70
2023-05-14T23:28:23.469Z,7.53
2023-05-14T23:30:50.681Z,5.13
2023-05-14T23:33:18.217Z,5.57
2023-05-14T23:35:45.661Z,6.30
2023-05-14T23:38:12.932Z,5.70
2023-05-14T23:40:40.885Z,5.40
2023-05-14T23:43:08.144Z,5.00
2023-05-14T23:45:35.584Z,5.20
2023-05-14T23:48:03.109Z,5.37
2023-05-14T23:50:30.827Z,6.00
2023-05-14T23:52:58.066Z,6.00
2023-05-14T23:55:25.568Z,5.37
2023-05-14T23:57:53.692Z,6.30
